createdAt,value
2019-02-05T00:02:07.659Z,956.1
2019-02-05T00:05:13.721Z,956
2019-02-05T00:08:19.663Z,956
2019-02-05T00:11:25.634Z,956
2019-02-05T00:14:31.596Z,956
2019-02-05T00:17:38.214Z,956
2019-02-05T00:20:45.564Z,956
2019-02-05T00:23:54.493Z,956
2019-02-05T00:27:00.452Z,956
2019-02-05T00:30:06.410Z,956
2019-02-05T00:33:12.283Z,956
2019-02-05T00:36:18.402Z,955.9
2019-02-05T00:39:24.852Z,956
2019-02-05T00:42:32.705Z,956
2019-02-05T00:45:41.147Z,956
2019-02-05T00:48:47.103Z,956
2019-02-05T00:51:53.166Z,956
2019-02-05T00:54:59.022Z,956
2019-02-05T00:58:05.214Z,955.9
2019-02-05T01:01:11.257Z,955.9
2019-02-05T01:04:21.107Z,955.9
2019-02-05T01:07:27.074Z,955.8
2019-02-05T01:10:33.241Z,956
2019-02-05T01:13:39.260Z,956
2019-02-05T01:16:45.400Z,955.9
2019-02-05T01:19:53.735Z,955.8
2019-02-05T01:22:59.805Z,955.8
2019-02-05T01:26:07.653Z,955.8
2019-02-05T01:29:13.667Z,955.9
2019-02-05T01:32:19.882Z,955.8
2019-02-05T01:35:25.758Z,955.7
2019-02-05T01:38:31.828Z,955.8
2019-02-05T01:41:37.861Z,955.7
2019-02-05T01:44:43.922Z,955.7
2019-02-05T01:47:50.892Z,955.7
2019-02-05T01:50:56.910Z,955.7
2019-02-05T01:54:03.538Z,955.7
2019-02-05T01:57:10.090Z,955.7
2019-02-05T02:00:16.022Z,955.7
2019-02-05T02:03:22.086Z,955.7
2019-02-05T02:06:28.125Z,955.6
2019-02-05T02:09:34.214Z,955.6
2019-02-05T02:12:40.086Z,955.7
2019-02-05T02:15:46.132Z,955.6
2019-02-05T02:18:53.363Z,955.6
2019-02-05T02:21:59.242Z,955.6
2019-02-05T02:25:05.919Z,955.5
2019-02-05T02:28:12.476Z,955.6
2019-02-05T02:31:18.489Z,955.7
2019-02-05T02:34:27.057Z,955.7
2019-02-05T02:37:33.165Z,955.6
2019-02-05T02:40:39.126Z,955.6
2019-02-05T02:43:45.190Z,955.6
2019-02-05T02:46:51.872Z,955.7
2019-02-05T02:49:59.256Z,955.7
2019-02-05T02:53:05.369Z,955.7
2019-02-05T02:56:11.543Z,955.6
2019-02-05T02:59:17.491Z,955.7
2019-02-05T03:02:23.503Z,955.8
2019-02-05T03:05:29.513Z,955.7
2019-02-05T03:08:35.471Z,955.8
2019-02-05T03:11:41.642Z,955.7
2019-02-05T03:14:47.800Z,955.8
2019-02-05T03:17:53.963Z,955.8
2019-02-05T03:21:00.133Z,955.7
2019-02-05T03:24:06.249Z,955.7
2019-02-05T03:27:19.373Z,955.7
2019-02-05T03:30:27.638Z,955.6
2019-02-05T03:33:33.710Z,955.6
2019-02-05T03:36:40.486Z,955.6
2019-02-05T03:39:47.208Z,955.6
2019-02-05T03:42:53.213Z,955.6
2019-02-05T03:45:59.581Z,955.6
2019-02-05T03:49:05.489Z,955.5
2019-02-05T03:52:11.707Z,955.5
2019-02-05T03:55:17.767Z,955.5
2019-02-05T03:58:23.830Z,955.5
2019-02-05T04:01:29.729Z,955.6
2019-02-05T04:04:41.863Z,955.6
2019-02-05T04:07:48.158Z,955.6
2019-02-05T04:10:55.702Z,955.6
2019-02-05T04:14:01.666Z,955.6
2019-02-05T04:17:07.724Z,955.6
2019-02-05T04:20:13.786Z,955.5
2019-02-05T04:23:19.801Z,955.5
2019-02-05T04:26:25.855Z,955.5
2019-02-05T04:29:31.926Z,955.5
2019-02-05T04:32:38.396Z,955.4
2019-02-05T04:35:44.559Z,955.4
2019-02-05T04:38:51.133Z,955.4
2019-02-05T04:41:58.111Z,955.4
2019-02-05T04:45:04.172Z,955.4
2019-02-05T04:48:10.292Z,955.5
2019-02-05T04:51:16.172Z,955.5
2019-02-05T04:54:22.314Z,955.5
2019-02-05T04:57:28.527Z,955.5
2019-02-05T05:00:34.541Z,955.6
2019-02-05T05:03:40.652Z,955.6
2019-02-05T05:06:46.811Z,955.5
2019-02-05T05:09:53.487Z,955.6
2019-02-05T05:13:01.047Z,955.7
2019-02-05T05:16:07.146Z,955.6
2019-02-05T05:19:13.719Z,955.6
2019-02-05T05:22:19.782Z,955.6
2019-02-05T05:25:25.694Z,955.7
2019-02-05T05:28:31.759Z,955.7
2019-02-05T05:31:37.714Z,955.7
2019-02-05T05:34:43.725Z,955.7
2019-02-05T05:37:49.759Z,955.7
2019-02-05T05:40:55.801Z,955.8
2019-02-05T05:44:01.822Z,955.8
2019-02-05T05:47:11.408Z,955.7
2019-02-05T05:50:20.627Z,955.8
2019-02-05T05:53:28.349Z,955.8
2019-02-05T05:56:34.405Z,955.9
2019-02-05T05:59:40.468Z,955.8
2019-02-05T06:02:46.491Z,955.9
2019-02-05T06:05:52.590Z,956
2019-02-05T06:08:58.653Z,956
2019-02-05T06:12:07.345Z,956
2019-02-05T06:15:13.411Z,956
2019-02-05T06:18:19.449Z,956
2019-02-05T06:21:25.562Z,956
2019-02-05T06:24:31.979Z,956
2019-02-05T06:27:37.990Z,956.1
2019-02-05T06:30:44.306Z,956.1
2019-02-05T06:33:51.854Z,956.1
2019-02-05T06:36:57.769Z,956
2019-02-05T06:40:04.348Z,956
2019-02-05T06:43:10.716Z,956.1
2019-02-05T06:46:16.926Z,956.1
2019-02-05T06:49:22.936Z,956.1
2019-02-05T06:52:29.002Z,956.1
2019-02-05T06:55:35.008Z,956.1
2019-02-05T06:58:47.895Z,956.1
2019-02-05T07:01:53.947Z,956.1
2019-02-05T07:05:02.256Z,956.1
2019-02-05T07:08:08.269Z,956.1
2019-02-05T07:11:14.891Z,956.1
2019-02-05T07:14:21.234Z,956.2
2019-02-05T07:17:27.271Z,956.2
2019-02-05T07:20:34.419Z,956.2
2019-02-05T07:23:40.487Z,956.2
2019-02-05T07:26:46.448Z,956.2
2019-02-05T07:29:52.459Z,956.1
2019-02-05T07:32:58.399Z,956.2
2019-02-05T07:36:04.515Z,956.2
2019-02-05T07:39:10.728Z,956.2
2019-02-05T07:42:16.961Z,956.2
2019-02-05T07:45:23.426Z,956.2
2019-02-05T07:48:31.783Z,956.3
2019-02-05T07:51:37.915Z,956.2
2019-02-05T07:54:43.965Z,956.3
2019-02-05T07:57:51.211Z,956.3
2019-02-05T08:00:57.282Z,956.2
2019-02-05T08:04:04.805Z,956.2
2019-02-05T08:07:10.896Z,956.3
2019-02-05T08:10:17.132Z,956.2
2019-02-05T08:13:27.714Z,956.2
2019-02-05T08:16:35.307Z,956.2
2019-02-05T08:19:41.583Z,956.2
2019-02-05T08:22:49.422Z,956.1
2019-02-05T08:25:56.560Z,956.2
2019-02-05T08:29:03.914Z,956.1
2019-02-05T08:32:10.988Z,956.2
2019-02-05T08:35:17.158Z,956.3
2019-02-05T08:38:23.207Z,956.1
2019-02-05T08:41:29.174Z,956.2
2019-02-05T08:44:35.240Z,956.2
2019-02-05T08:47:41.444Z,956.2
2019-02-05T08:50:47.507Z,956.2
2019-02-05T08:53:53.673Z,956.2
2019-02-05T08:56:59.814Z,956.2
2019-02-05T09:00:05.850Z,956.2
2019-02-05T09:03:12.079Z,956.2
2019-02-05T09:06:18.229Z,956.2
2019-02-05T09:09:24.242Z,956.3
2019-02-05T09:12:30.254Z,956.3
2019-02-05T09:15:36.260Z,956.2
2019-02-05T09:18:43.249Z,956.3
2019-02-05T09:21:50.685Z,956.1
2019-02-05T09:24:56.743Z,956.2
2019-02-05T09:28:03.420Z,956.1
2019-02-05T09:31:10.923Z,956.1
2019-02-05T09:34:17.137Z,956
2019-02-05T09:37:24.107Z,956
2019-02-05T09:40:30.080Z,956
2019-02-05T09:43:36.189Z,956
2019-02-05T09:46:42.215Z,955.9
2019-02-05T09:49:48.262Z,955.9
2019-02-05T09:52:54.426Z,956
2019-02-05T09:56:00.538Z,955.9
2019-02-05T09:59:06.653Z,955.8
2019-02-05T10:02:12.715Z,955.8
2019-02-05T10:05:18.621Z,955.7
2019-02-05T10:08:24.687Z,955.6
2019-02-05T10:11:30.746Z,955.7
2019-02-05T10:14:36.910Z,955.6
2019-02-05T10:17:43.127Z,955.5
2019-02-05T10:20:49.457Z,955.5
2019-02-05T10:23:55.646Z,955.4
2019-02-05T10:27:01.775Z,955.4
2019-02-05T10:30:09.897Z,955.3
2019-02-05T10:33:15.948Z,955.3
2019-02-05T10:36:22.480Z,955.3
2019-02-05T10:39:28.888Z,955.3
2019-02-05T10:42:34.949Z,955.3
2019-02-05T10:45:40.965Z,955.2
2019-02-05T10:48:47.024Z,955.2
2019-02-05T10:51:53.252Z,955.1
2019-02-05T10:54:59.261Z,955.1
2019-02-05T10:58:05.328Z,955
2019-02-05T11:01:11.288Z,955
2019-02-05T11:04:17.441Z,955
2019-02-05T11:07:23.518Z,954.9
2019-02-05T11:10:29.789Z,954.8
2019-02-05T11:13:35.885Z,954.8
2019-02-05T11:16:42.150Z,954.8
2019-02-05T11:19:48.322Z,954.8
2019-02-05T11:22:54.493Z,954.7
2019-02-05T11:26:00.952Z,954.7
2019-02-05T11:29:09.607Z,954.7
2019-02-05T11:32:15.497Z,954.6
2019-02-05T11:35:22.206Z,954.6
2019-02-05T11:38:29.342Z,954.6
2019-02-05T11:41:35.512Z,954.6
2019-02-05T11:44:42.032Z,954.5
2019-02-05T11:47:48.301Z,954.4
2019-02-05T11:50:55.332Z,954.4
2019-02-05T11:54:01.344Z,954.4
2019-02-05T11:57:07.500Z,954.4
2019-02-05T12:00:13.769Z,954.3
2019-02-05T12:03:19.952Z,954.3
2019-02-05T12:06:27.746Z,954.2
2019-02-05T12:09:34.023Z,954.2
2019-02-05T12:12:41.098Z,954.3
2019-02-05T12:15:47.231Z,954.1
2019-02-05T12:18:53.982Z,954
2019-02-05T12:22:00.042Z,954
2019-02-05T12:25:06.268Z,954
2019-02-05T12:28:13.508Z,953.9
2019-02-05T12:31:19.570Z,953.8
2019-02-05T12:34:27.145Z,953.8
2019-02-05T12:37:34.920Z,953.8
2019-02-05T12:40:41.458Z,953.8
2019-02-05T12:43:47.599Z,953.7
2019-02-05T12:46:53.611Z,953.7
2019-02-05T12:49:59.669Z,953.7
2019-02-05T12:53:05.936Z,953.7
2019-02-05T12:56:12.103Z,953.7
2019-02-05T12:59:18.135Z,953.7
2019-02-05T13:02:24.173Z,953.6
2019-02-05T13:05:30.182Z,953.6
2019-02-05T13:08:38.496Z,953.5
2019-02-05T13:11:44.762Z,953.5
2019-02-05T13:14:50.777Z,953.5
2019-02-05T13:17:56.737Z,953.5
2019-02-05T13:21:02.848Z,953.4
2019-02-05T13:24:10.085Z,953.5
2019-02-05T13:27:20.299Z,953.5
2019-02-05T13:30:27.748Z,953.4
2019-02-05T13:33:33.645Z,953.4
2019-02-05T13:36:39.829Z,953.4
2019-02-05T13:39:45.793Z,953.5
2019-02-05T13:42:51.884Z,953.5
2019-02-05T13:46:00.007Z,953.4
2019-02-05T13:49:06.111Z,953.4
2019-02-05T13:52:14.065Z,953.5
2019-02-05T13:55:20.086Z,953.5
2019-02-05T13:58:26.105Z,953.5
2019-02-05T14:01:32.193Z,953.4
2019-02-05T14:04:38.168Z,953.5
2019-02-05T14:07:44.173Z,953.5
2019-02-05T14:10:50.215Z,953.5
2019-02-05T14:13:56.275Z,953.7
2019-02-05T14:17:02.233Z,953.7
2019-02-05T14:20:09.220Z,953.7
2019-02-05T14:23:17.168Z,953.7
2019-02-05T14:26:23.326Z,953.7
2019-02-05T14:29:29.905Z,953.6
2019-02-05T14:32:35.920Z,953.7
2019-02-05T14:35:41.798Z,953.7
2019-02-05T14:38:47.839Z,953.6
2019-02-05T14:41:54.021Z,953.6
2019-02-05T14:45:00.122Z,953.7
2019-02-05T14:48:06.188Z,953.8
2019-02-05T14:51:12.340Z,953.8
2019-02-05T14:54:19.957Z,953.7
2019-02-05T14:57:25.878Z,953.8
2019-02-05T15:00:31.959Z,953.7
2019-02-05T15:03:37.971Z,953.8
2019-02-05T15:06:44.963Z,953.8
2019-02-05T15:09:50.890Z,954
2019-02-05T15:12:56.760Z,953.9
2019-02-05T15:16:03.059Z,953.9
2019-02-05T15:19:08.973Z,954
2019-02-05T15:22:15.512Z,954
2019-02-05T15:25:22.509Z,954
2019-02-05T15:28:28.586Z,954
2019-02-05T15:31:34.579Z,954.1
2019-02-05T15:34:40.479Z,954.1
2019-02-05T15:37:46.416Z,954.1
2019-02-05T15:40:52.705Z,954.3
2019-02-05T15:44:02.463Z,954.3
2019-02-05T15:47:09.341Z,954.2
2019-02-05T15:50:15.365Z,954.3
2019-02-05T15:53:21.342Z,954.3
2019-02-05T15:56:27.278Z,954.3
2019-02-05T15:59:33.358Z,954.3
2019-02-05T16:02:39.499Z,954.3
2019-02-05T16:05:45.488Z,954.4
2019-02-05T16:08:52.752Z,954.5
2019-02-05T16:11:58.817Z,954.5
2019-02-05T16:15:05.335Z,954.5
2019-02-05T16:18:12.472Z,954.5
2019-02-05T16:21:18.431Z,954.4
2019-02-05T16:24:24.366Z,954.5
2019-02-05T16:27:30.450Z,954.5
2019-02-05T16:30:36.411Z,954.5
2019-02-05T16:33:42.371Z,954.5
2019-02-05T16:36:49.967Z,954.6
2019-02-05T16:39:56.134Z,954.5
2019-02-05T16:43:02.124Z,954.6
2019-02-05T16:46:08.817Z,954.6
2019-02-05T16:49:16.014Z,954.6
2019-02-05T16:52:24.864Z,954.5
2019-02-05T16:55:30.849Z,954.6
2019-02-05T16:58:36.906Z,954.6
2019-02-05T17:01:42.973Z,954.6
2019-02-05T17:04:48.874Z,954.6
2019-02-05T17:07:54.897Z,954.6
2019-02-05T17:11:02.792Z,954.6
2019-02-05T17:14:08.864Z,954.5
2019-02-05T17:17:15.173Z,954.6
2019-02-05T17:20:23.948Z,954.6
2019-02-05T17:23:32.774Z,954.5
2019-02-05T17:26:38.891Z,954.5
2019-02-05T17:29:44.955Z,954.6
2019-02-05T17:32:55.160Z,954.6
2019-02-05T17:36:01.326Z,954.5
2019-02-05T17:39:10.156Z,954.5
2019-02-05T17:42:16.043Z,954.4
2019-02-05T17:45:21.972Z,954.4
2019-02-05T17:48:28.054Z,954.3
2019-02-05T17:51:34.148Z,954.3
2019-02-05T17:54:40.814Z,954.2
2019-02-05T17:57:46.943Z,954.2
2019-02-05T18:00:53.573Z,954.4
2019-02-05T18:04:00.138Z,954.4
2019-02-05T18:07:06.262Z,954.3
2019-02-05T18:10:12.265Z,954.4
2019-02-05T18:13:18.217Z,954.3
2019-02-05T18:16:24.331Z,954.4
2019-02-05T18:19:30.291Z,954.4
2019-02-05T18:22:36.172Z,954.2
2019-02-05T18:25:43.591Z,954.3
2019-02-05T18:28:49.741Z,954.4
2019-02-05T18:31:56.131Z,954.4
2019-02-05T18:35:02.249Z,954.5
2019-02-05T18:38:08.359Z,954.5
2019-02-05T18:41:14.481Z,954.5
2019-02-05T18:44:20.361Z,954.5
2019-02-05T18:47:26.320Z,954.5
2019-02-05T18:50:32.253Z,954.5
2019-02-05T18:53:38.163Z,954.4
2019-02-05T18:56:45.712Z,954.3
2019-02-05T18:59:52.186Z,954.5
2019-02-05T19:02:59.011Z,954.4
2019-02-05T19:06:18.336Z,954.4
2019-02-05T19:09:25.724Z,954.4
2019-02-05T19:12:31.918Z,954.3
2019-02-05T19:15:38.309Z,954.3
2019-02-05T19:18:44.595Z,954.4
2019-02-05T19:21:53.543Z,954.4
2019-02-05T19:24:59.623Z,954.3
2019-02-05T19:28:05.586Z,954.3
2019-02-05T19:31:11.693Z,954.2
2019-02-05T19:34:17.929Z,954.2
2019-02-05T19:37:24.741Z,954.2
2019-02-05T19:40:32.598Z,954.2
2019-02-05T19:43:38.865Z,954.1
2019-02-05T19:46:45.703Z,954
2019-02-05T19:49:54.352Z,954.1
2019-02-05T19:53:03.169Z,954
2019-02-05T19:56:10.026Z,954.1
2019-02-05T19:59:19.721Z,954
2019-02-05T20:02:25.883Z,954
2019-02-05T20:05:31.847Z,954
2019-02-05T20:08:37.956Z,954.1
2019-02-05T20:11:43.978Z,954
2019-02-05T20:14:50.902Z,954
2019-02-05T20:17:56.910Z,954
2019-02-05T20:21:03.828Z,954
2019-02-05T20:24:10.025Z,954.2
2019-02-05T20:27:16.906Z,954.1
2019-02-05T20:30:24.392Z,954
2019-02-05T20:33:30.703Z,953.9
2019-02-05T20:36:36.810Z,953.9
2019-02-05T20:39:43.178Z,953.8
2019-02-05T20:42:49.283Z,953.8
2019-02-05T20:45:55.258Z,953.7
2019-02-05T20:49:01.330Z,953.7
2019-02-05T20:52:07.282Z,953.8
2019-02-05T20:55:13.392Z,953.8
2019-02-05T20:58:19.618Z,953.8
2019-02-05T21:01:25.700Z,953.8
2019-02-05T21:04:31.849Z,953.7
2019-02-05T21:07:53.187Z,953.7
2019-02-05T21:10:59.225Z,953.7
2019-02-05T21:14:05.290Z,953.7
2019-02-05T21:17:11.299Z,953.7
2019-02-05T21:20:30.720Z,953.7
2019-02-05T21:23:39.675Z,953.6
2019-02-05T21:26:45.612Z,953.5
2019-02-05T21:29:51.572Z,953.5
2019-02-05T21:32:57.530Z,953.6
2019-02-05T21:36:03.905Z,953.6
2019-02-05T21:39:10.335Z,953.6
2019-02-05T21:42:16.332Z,953.7
2019-02-05T21:45:22.297Z,953.7
2019-02-05T21:48:28.450Z,953.7
2019-02-05T21:51:44.517Z,953.7
2019-02-05T21:54:50.574Z,953.6
2019-02-05T21:57:56.645Z,953.6
2019-02-05T22:01:02.692Z,953.6
2019-02-05T22:04:11.461Z,953.5
2019-02-05T22:07:31.227Z,953.6
2019-02-05T22:10:37.258Z,953.6
2019-02-05T22:13:43.638Z,953.6
2019-02-05T22:16:50.413Z,953.7
2019-02-05T22:20:01.696Z,953.6
2019-02-05T22:23:07.860Z,953.6
2019-02-05T22:26:13.868Z,953.5
2019-02-05T22:29:19.983Z,953.4
2019-02-05T22:32:26.261Z,953.3
2019-02-05T22:35:32.203Z,953.3
2019-02-05T22:38:38.264Z,953.3
2019-02-05T22:41:44.334Z,953.3
2019-02-05T22:44:50.397Z,953.3
2019-02-05T22:47:56.689Z,953.3
2019-02-05T22:51:03.457Z,953.2
2019-02-05T22:54:11.068Z,953.3
2019-02-05T22:57:17.318Z,953.3
2019-02-05T23:00:23.312Z,953.3
2019-02-05T23:03:29.940Z,953.2
2019-02-05T23:06:38.134Z,953.2
2019-02-05T23:09:44.088Z,953
2019-02-05T23:12:50.172Z,953
2019-02-05T23:15:56.255Z,952.9
2019-02-05T23:19:02.245Z,952.8
2019-02-05T23:22:08.309Z,952.7
2019-02-05T23:25:14.539Z,952.7
2019-02-05T23:28:20.445Z,952.8
2019-02-05T23:31:28.556Z,952.8
2019-02-05T23:34:34.673Z,952.7
2019-02-05T23:37:40.783Z,952.7
2019-02-05T23:40:46.786Z,952.7
2019-02-05T23:43:52.857Z,952.7
2019-02-05T23:46:58.755Z,952.6
2019-02-05T23:50:04.817Z,952.7
2019-02-05T23:53:10.955Z,952.6
2019-02-05T23:56:26.922Z,952.6
2019-02-05T23:59:32.934Z,952.6
